NY Terminal Aviation Weather Discussion (AFD) - Prepared: 1221 PM EDT THU OCT 30 2014
HI PRES BUILDS OVER THE METRO TODAY. LOW PRES BEGINS TO DEVELOP S
OF THE REGION FRI.

VFR THRU THE TAF PERIOD.

MAINLY NW WINDS AT OR BELOW 10KT. SOME BACKING TO THE WNW THIS
AFTN...ESPECIALLY S COASTS. DIRECTION VEERS TO THE N OVERNIGHT.


5 Day General Aviation Outlook:

.OUTLOOK FOR 06Z FRIDAY THROUGH MONDAY...
.THU NGT...VFR.
.FRI...CIGS LOWER THRU THE DAY WITH MVFR POSSIBLE LATE.
.FRI NGT-SAT NGT...MVFR OR LOWER. PCPN MAINLY RAIN...BUT SNOW MAY
MIX IN ACROSS THE INTERIOR AT NGT. NE-N WINDS 15-20G25-35KT.
.SUNDAY...VFR. NW WINDS 20-25G30-35KT.
.MONDAY...VFR. WEST WINDS 5-10 KT.


NY Metro Terminal Aviation Weather Summary: (Explanation of Color Coding)
NOTE: All Wind Directions are TRUE (add 13 degrees for magnetic directions). Tail and Crosswind Calculations do account for the magnetic deviation of runways.

Click on the Airport Below for Specific Information at that Terminal

TAF Overview JFK TAF LGA TAF EWR TAF TEB TAF HPN TAF ISP TAF

Jump to AirSpace Impacts Section Condensed "lite" version of SPA page
**************************************************************************************
KJFK Terminal Weather: (Wind Directions Are True, Except Where Noted, ADD 13 degrees for Magnetic)

5MIN KJFK 301725Z 34012G16KT 10SM FEW050 16/02 A2998 
     -30 39 100 360/12G16 RMK AO2
5MIN KJFK 301720Z 35010G16KT 10SM CLR 16/02 A2998 -30 
     39 100 360/10G16 RMK AO2
********************************************
****        MAGNETIC DIRECTIONS         ****
********************************************
KJFK 10/30/2014 17:37:21 GMT 010 10 G16KT
KJFK 10/30/2014 17:35:21 GMT 360 10 G16KT
KJFK 10/30/2014 17:33:21 GMT 350 09 G16KT
KJFK 10/30/2014 17:31:21 GMT 340 11 G16KT
KJFK 10/30/2014 17:29:21 GMT 350 13 KT
KJFK 10/30/2014 17:27:21 GMT 360 11 G16KT
KJFK 10/30/2014 17:25:21 GMT 360 10 G16KT
KJFK 10/30/2014 17:23:21 GMT 350 13 KT
KJFK 10/30/2014 17:21:21 GMT 360 10 G16KT
KJFK 10/30/2014 17:19:21 GMT 350 10 KT
SAUS70 KJFK 301700
METAR KJFK 301651Z 32012KT 10SM FEW050 SCT075 16/02 A2999 RMK AO2 SLP154
     T01560022
FTNA35 KJFK 301437 RRA
KJFK 301426Z 3014/3118 32011KT P6SM SCT040
     FM301900 30010KT P6SM BKN040
     FM310100 33007KT P6SM SCT040
     FM310900 01007KT P6SM BKN035
     FM311500 04007KT P6SM BKN035
KJFK FCSTER COMMENTS: WINDS GENERALLY RIGHT OF 310 MAGNETIC
TODAY...POSSIBLY WAVERING BETWEEN 290 AND 310 MAGNETIC BETWEEN 18Z
AND 23Z.

jfk

JFK Hourly Forecast Temperature (C)

JFK Hourly TMPS
**************************************************************************************
KLGA Terminal Weather: (Wind Directions Are True, Except Where Noted, ADD 13 degrees for Magnetic)

5MIN KLGA 301725Z 36009KT 10SM CLR 14/03 A2998 -20 47 
     -100 010/09 RMK AO2
5MIN KLGA 301720Z 33008KT 10SM CLR 14/04 A2998 -20 49 0
      350/08 RMK AO2
********************************************
****        MAGNETIC DIRECTIONS         ****
********************************************
KLGA 10/30/2014 17:37:58 GMT 350 10 KT
KLGA 10/30/2014 17:36:00 GMT 360 10 KT
KLGA 10/30/2014 17:34:00 GMT 360 09 KT
KLGA 10/30/2014 17:31:59 GMT 360 10 KT
KLGA 10/30/2014 17:29:59 GMT 360 10 KT
KLGA 10/30/2014 17:27:49 GMT 010 11 KT
KLGA 10/30/2014 17:25:59 GMT 010 13 KT
KLGA 10/30/2014 17:23:58 GMT 010 12 KT
KLGA 10/30/2014 17:21:58 GMT 360 10 KT
KLGA 10/30/2014 17:19:59 GMT 360 12 KT
SAUS70 KLGA 301700
METAR KLGA 301651Z 33012KT 10SM FEW045 SCT075 14/02 A2998 RMK AO2 SLP153
     T01390022
FTUS80 KLGA 301430 AAA
KLGA 301426Z 3014/3112 33011KT P6SM SCT040
     FM301900 32010KT P6SM BKN040
     FM310100 33007KT P6SM SCT040
     FM310900 01007KT P6SM BKN035
KLGA FCSTER COMMENTS: WINDS GENERALLY RIGHT OF 310 MAGNETIC
TODAY.

lga


**************************************************************************************

KEWR Terminal Weather: (Wind Directions Are True, Except Where Noted, ADD 13 degrees for Magnetic)

5MIN KEWR 301725Z 31010G19KT 10SM SCT042 15/03 A2999 
     -40 45 0 320/10G19 RMK AO2
5MIN KEWR 301720Z 30008KT 10SM SCT042 14/03 A2998 -30 
     47 0 310/08 RMK AO2
********************************************
****        MAGNETIC DIRECTIONS         ****
********************************************
KEWR 10/30/2014 17:37:29 GMT 330 09 G14KT
KEWR 10/30/2014 17:35:29 GMT 330 09 G14KT
KEWR 10/30/2014 17:33:29 GMT 340 11 KT
KEWR 10/30/2014 17:31:29 GMT 330 11 KT
KEWR 10/30/2014 17:29:29 GMT 310 08 KT
KEWR 10/30/2014 17:27:29 GMT 310 08 G16KT
KEWR 10/30/2014 17:25:29 GMT CAL  KT
KEWR 10/30/2014 17:23:29 GMT CAL  KT
KEWR 10/30/2014 17:21:29 GMT 340 08 G16KT
KEWR 10/30/2014 17:19:29 GMT 340 12 G16KT
SAUS70 KEWR 301700
METAR KEWR 301651Z 33009G19KT 10SM SCT040 SCT065 14/03 A3000 RMK AO2
     SLP157 T01440033
FTUS80 KEWR 301430 AAA
KEWR 301426Z 3014/3118 33010KT P6SM SCT040
     FM301900 31009KT P6SM BKN040
     FM310000 33006KT P6SM SCT040
     FM310900 01006KT P6SM BKN035
     FM311500 04006KT P6SM BKN035
KEWR FCSTER COMMENTS: WINDS GENERALLY RIGHT OF 310 MAGNETIC
TODAY...POSSIBLY WAVERING BETWEEN 290 AND 310 MAGNETIC BETWEEN
18Z AND 23Z.

ewr
Afternoon EWR Haze Potential Forecast: green
THE AFTERNOON KEWR HAZE POTENTIAL FORECAST IS GREEN...WHICH
IMPLIES SLANT RANGE VISIBILITY 7SM OR GREATER OUTSIDE OF CLOUD.


******************************************************************************

KTEB Terminal Weather:
SAUS80 KTEB 301700
METAR KTEB 301651Z 33010KT 10SM FEW042 13/03 A2998 RMK AO2 SLP153
     T01330028
FTUS80 KTEB 301430 AAB
KTEB 301426Z 3014/3112 33007KT P6SM SCT040
     FM301900 31007KT P6SM BKN040
     FM310100 34004KT P6SM SCT040
     FM310900 36004KT P6SM BKN035
KTEB FCSTER COMMENTS: WINDS GENERALLY RIGHT OF 310 MAGNETIC
TODAY.

teb

 


**************************************************************************************

KHPN Terminal Weather:
SAUS70 KHPN 301700 RRC
METAR KHPN 301656Z AUTO 32009KT 10SM FEW036 13/04 A2997 RMK AO2 SLP151
     T01280039 TSNO
FTUS80 KHPN 301430 AAA
KHPN 301426Z 3014/3112 32007KT P6SM SCT040
     FM301900 31007KT P6SM BKN040
     FM310100 33004KT P6SM SCT040
     FM310900 36004KT P6SM BKN035 AMD NOT SKED
KHPN FCSTER COMMENTS: NO UNSCHEDULED AMENDMENTS EXPECTED.

HPN


******************************************************************************

KISP Terminal Weather:
SAUS70 KISP 301700 RRC
METAR KISP 301656Z VRB06KT 10SM BKN036 BKN055 BKN080 14/06 A2996 RMK AO2
     SLP143 T01390056
FTUS80 KISP 301430 AAA
KISP 301426Z 3014/3112 33009KT P6SM SCT040
     FM301900 31007KT P6SM SCT040
     FM310100 34004KT P6SM SCT040
     FM310900 01004KT P6SM BKN035
KISP FCSTER COMMENTS: NO UNSCHEDULED AMENDMENTS EXPECTED.  

ISP

 


ZNY SWAP Season Information

(ZNY SWAP STATEMENT) (Click for PDF File) (ZNY BRIEFING) (Click for PDF File)

*******************************************************
***        NY AIR ROUTE TRAFFIC CONTROL CENTER      ***
***                DAILY SWAP STATEMENT             ***
*******************************************************
NY AIR ROUTE TRAFFIC CONTROL CENTER
DAILY SWAP STATEMENT
SUNDAY OCTOBER 26, 2014
ROUTINE SWAP STATEMENTS ARE ISSUED 
BETWEEN APRIL 1 AND SEPTEMBER 30.
SWAP STATEMENTS WILL BE ISSUED IF TS ARE 
EXPECTED TO IMPACT OPERATIONS.
$$



N90 AirSpace Impacts

N90 ZNY Gate TSTM Forecast    SWAP Day One Forecast

SWAP Day One Forecast    SWAP Day Two Outlook

National Collaborative Convective Forecast Product (CCFP) Forecasts (Mar-Oct)


Vertical Wind Profile
Untitled Document